createdAt,value
2023-02-14T12:10:36.423Z,10.50
2023-02-14T12:13:38.375Z,10.60
2023-02-14T12:16:52.241Z,10.70
2023-02-14T12:20:09.278Z,10.80
2023-02-14T12:23:18.318Z,10.80
2023-02-14T12:26:36.669Z,10.90
2023-02-14T12:30:02.340Z,10.80
2023-02-14T12:33:18.081Z,10.90
2023-02-14T12:37:01.313Z,10.90
2023-02-14T12:40:36.794Z,10.90
2023-02-14T12:43:44.593Z,10.90
2023-02-14T12:46:57.150Z,10.90
2023-02-14T12:50:17.912Z,10.90
2023-02-14T12:53:44.062Z,11.00
2023-02-14T12:57:33.520Z,11.10
2023-02-14T13:00:35.479Z,11.10
2023-02-14T13:03:42.841Z,11.20
2023-02-14T13:07:03.751Z,11.20
2023-02-14T13:10:24.077Z,11.20
2023-02-14T13:13:50.639Z,11.20
2023-02-14T13:17:35.721Z,11.30
2023-02-14T13:20:47.305Z,11.40
2023-02-14T13:24:42.366Z,11.40
2023-02-14T13:27:48.633Z,11.40
2023-02-14T13:30:50.844Z,11.40
2023-02-14T13:34:00.790Z,11.30
2023-02-14T13:37:06.789Z,11.40
2023-02-14T13:40:18.838Z,11.40
2023-02-14T13:43:50.400Z,11.40
2023-02-14T13:46:52.610Z,11.50
2023-02-14T13:50:00.190Z,11.50
2023-02-14T13:53:02.330Z,11.40
2023-02-14T13:56:33.438Z,11.40
2023-02-14T14:00:19.948Z,11.40
2023-02-14T14:03:31.445Z,11.40
2023-02-14T14:07:19.635Z,11.40
2023-02-14T14:10:43.013Z,11.50
2023-02-14T14:13:58.688Z,11.50
2023-02-14T14:17:02.347Z,11.50
2023-02-14T14:20:27.759Z,11.50
2023-02-14T14:23:38.711Z,11.60
2023-02-14T14:27:09.149Z,11.50
2023-02-14T14:30:22.803Z,11.50
2023-02-14T14:33:40.902Z,11.50
2023-02-14T14:36:50.628Z,11.40
2023-02-14T14:39:55.433Z,11.50
2023-02-14T14:43:35.199Z,11.60
2023-02-14T14:46:49.094Z,11.50
2023-02-14T14:49:54.120Z,11.50
2023-02-14T14:53:10.984Z,11.50
2023-02-14T14:56:28.674Z,11.50
2023-02-14T14:59:49.492Z,11.50
2023-02-14T15:03:18.271Z,11.50
2023-02-14T15:06:22.326Z,11.50
2023-02-14T15:14:13.635Z,11.50
2023-02-14T15:17:51.040Z,11.50
2023-02-14T15:20:56.328Z,11.50
2023-02-14T15:24:13.109Z,11.50
2023-02-14T15:27:24.017Z,11.50
2023-02-14T15:30:37.342Z,11.50
2023-02-14T15:33:48.103Z,11.40
2023-02-14T15:36:56.075Z,11.40
2023-02-14T15:43:19.188Z,11.40
2023-02-14T15:47:08.966Z,11.40
2023-02-14T15:50:32.405Z,11.40
2023-02-14T15:54:36.420Z,11.30
2023-02-14T16:00:57.847Z,11.30
2023-02-14T16:04:24.426Z,11.30
2023-02-14T16:07:39.522Z,11.30
2023-02-14T16:10:41.274Z,11.30
2023-02-14T16:14:04.742Z,11.20
2023-02-14T16:20:51.366Z,11.30
2023-02-14T16:24:14.966Z,11.20
2023-02-14T16:28:07.937Z,11.20
2023-02-14T16:34:22.524Z,11.10
2023-02-14T16:37:51.305Z,11.00
2023-02-14T16:41:35.621Z,11.00
2023-02-14T16:44:49.106Z,11.00
2023-02-14T16:47:51.512Z,10.90
2023-02-14T16:50:53.491Z,10.80
2023-02-14T16:54:09.069Z,10.60
2023-02-14T16:57:48.199Z,10.50
2023-02-14T17:00:52.903Z,10.40
2023-02-14T17:04:00.359Z,10.30
2023-02-14T17:07:22.848Z,10.30
2023-02-14T17:10:24.895Z,10.30
2023-02-14T17:13:28.895Z,10.30
2023-02-14T17:16:33.705Z,10.10
2023-02-14T17:23:04.285Z,9.90
2023-02-14T17:26:06.402Z,9.70
2023-02-14T17:29:42.916Z,9.60
2023-02-14T17:32:49.568Z,9.50
2023-02-14T17:36:02.949Z,9.40
2023-02-14T17:39:09.853Z,9.30
2023-02-14T17:42:12.233Z,9.20
2023-02-14T17:45:32.491Z,9.10
2023-02-14T17:51:53.503Z,8.90
2023-02-14T17:54:55.562Z,8.90
2023-02-14T17:57:57.465Z,8.80
2023-02-14T18:01:23.063Z,8.80
2023-02-14T18:04:30.393Z,8.70
2023-02-14T18:07:32.409Z,8.60
2023-02-14T18:11:19.884Z,8.50
2023-02-14T18:14:26.620Z,8.40
2023-02-14T18:18:25.717Z,8.30
2023-02-14T18:21:28.097Z,8.20
2023-02-14T18:25:08.221Z,8.20
2023-02-14T18:28:17.448Z,8.20
2023-02-14T18:31:23.393Z,8.20
2023-02-14T18:38:05.845Z,8.00
2023-02-14T18:41:25.315Z,8.00
2023-02-14T18:44:36.649Z,7.90
2023-02-14T18:47:49.195Z,7.80
2023-02-14T18:50:55.628Z,7.70
2023-02-14T18:53:59.864Z,7.60
2023-02-14T18:57:02.272Z,7.60
2023-02-14T19:00:17.005Z,7.60
2023-02-14T19:03:24.952Z,7.60
2023-02-14T19:06:55.470Z,7.60
2023-02-14T19:09:58.489Z,7.50
2023-02-14T19:13:01.119Z,7.40
2023-02-14T19:16:27.220Z,7.40
2023-02-14T19:20:13.874Z,7.40
2023-02-14T19:26:48.489Z,7.30
2023-02-14T19:29:53.002Z,7.20
2023-02-14T19:33:03.779Z,7.10
2023-02-14T19:36:07.606Z,7.10
2023-02-14T19:39:11.801Z,7.00
2023-02-14T19:42:13.864Z,7.00
2023-02-14T19:48:46.048Z,6.90
2023-02-14T19:51:51.464Z,6.90
2023-02-14T19:54:55.932Z,6.80
2023-02-14T19:58:13.277Z,6.70
2023-02-14T20:01:47.854Z,6.70
2023-02-14T20:04:50.094Z,6.70
2023-02-14T20:07:54.640Z,6.70
2023-02-14T20:10:56.507Z,6.80
2023-02-14T20:14:00.184Z,6.60
2023-02-14T20:17:05.081Z,6.60
2023-02-14T20:20:08.481Z,6.60
2023-02-14T20:23:13.371Z,6.60
2023-02-14T20:26:16.810Z,6.40
2023-02-14T20:29:52.024Z,6.40
2023-02-14T20:32:57.115Z,6.40
2023-02-14T20:36:11.378Z,6.50
2023-02-14T20:39:20.898Z,6.40
2023-02-14T20:42:25.695Z,6.20
2023-02-14T20:45:27.557Z,6.30
2023-02-14T20:48:31.083Z,6.20
2023-02-14T20:51:36.074Z,6.20
2023-02-14T20:54:41.442Z,6.10
2023-02-14T20:58:18.262Z,6.10
2023-02-14T21:01:43.439Z,6.20
2023-02-14T21:04:45.377Z,6.10
2023-02-14T21:07:47.570Z,6.00
2023-02-14T21:10:59.250Z,6.10
2023-02-14T21:14:23.160Z,5.90
2023-02-14T21:17:25.195Z,5.80
2023-02-14T21:20:36.915Z,5.80
2023-02-14T21:27:58.996Z,5.80
2023-02-14T21:30:35.197Z,5.90
2023-02-14T21:33:37.894Z,5.80
2023-02-14T21:36:39.760Z,5.70
2023-02-14T21:39:41.874Z,5.70
2023-02-14T21:42:43.862Z,5.60
2023-02-14T21:45:55.001Z,5.60
2023-02-14T21:49:34.006Z,5.60
2023-02-14T21:52:42.190Z,5.60
2023-02-14T21:55:46.069Z,5.60
2023-02-14T21:58:50.468Z,5.50
2023-02-14T22:01:52.436Z,5.40
2023-02-14T22:04:54.552Z,5.40
2023-02-14T22:07:56.402Z,5.40
2023-02-14T22:10:59.358Z,5.40
2023-02-14T22:14:02.063Z,5.30
2023-02-14T22:17:03.958Z,5.30
2023-02-14T22:20:06.780Z,5.30
2023-02-14T22:23:09.106Z,5.30
2023-02-14T22:26:17.489Z,5.30
2023-02-14T22:29:19.273Z,5.30
2023-02-14T22:32:21.274Z,5.30
2023-02-14T22:35:23.228Z,5.30
2023-02-14T22:38:25.837Z,5.20
2023-02-14T22:41:27.927Z,5.20
2023-02-14T22:44:29.676Z,5.20
2023-02-14T22:47:32.454Z,5.20
2023-02-14T22:50:35.604Z,5.20
2023-02-14T22:53:38.396Z,5.10
2023-02-14T22:56:46.659Z,5.10
2023-02-14T22:59:48.959Z,5.20
2023-02-14T23:02:50.917Z,5.30
2023-02-14T23:05:59.605Z,5.30
2023-02-14T23:09:03.513Z,5.10
2023-02-14T23:12:25.775Z,5.10
2023-02-14T23:15:46.098Z,5.10
2023-02-14T23:19:06.674Z,5.10
2023-02-14T23:22:13.322Z,4.90
2023-02-14T23:25:15.287Z,5.00
2023-02-14T23:28:17.143Z,4.90
2023-02-14T23:31:19.210Z,4.90
2023-02-14T23:34:24.257Z,4.90
2023-02-14T23:37:26.132Z,4.90
2023-02-14T23:40:28.133Z,5.00
2023-02-14T23:43:30.189Z,4.90
2023-02-14T23:46:32.271Z,4.70
2023-02-14T23:49:35.663Z,4.70
2023-02-14T23:52:41.660Z,4.80
2023-02-14T23:55:44.094Z,4.80
2023-02-14T23:58:46.138Z,4.80
